createdAt,value
2023-11-28T00:01:31.761Z,-3.27
2023-11-28T00:03:59.386Z,-3.29
2023-11-28T00:06:26.706Z,-3.30
2023-11-28T00:08:54.042Z,-3.30
2023-11-28T00:11:22.650Z,-3.26
2023-11-28T00:13:51.022Z,-3.29
2023-11-28T00:16:18.757Z,-3.24
2023-11-28T00:18:46.465Z,-3.24
2023-11-28T00:21:14.353Z,-3.22
2023-11-28T00:23:41.869Z,-3.22
2023-11-28T00:26:09.018Z,-3.22
2023-11-28T00:28:37.575Z,-3.23
2023-11-28T00:31:04.916Z,-3.25
2023-11-28T00:33:32.857Z,-3.26
2023-11-28T00:35:59.994Z,-3.28
2023-11-28T00:38:27.203Z,-3.32
2023-11-28T00:40:54.834Z,-3.29
2023-11-28T00:43:22.333Z,-3.28
2023-11-28T00:45:49.869Z,-3.25
2023-11-28T00:48:17.233Z,-3.23
2023-11-28T00:50:44.486Z,-3.19
2023-11-28T00:53:11.669Z,-3.18
2023-11-28T00:55:38.805Z,-3.22
2023-11-28T00:58:05.990Z,-3.24
2023-11-28T01:00:33.375Z,-3.28
2023-11-28T01:03:04.995Z,-3.24
2023-11-28T01:05:32.514Z,-3.26
2023-11-28T01:07:59.882Z,-3.30
2023-11-28T01:10:27.094Z,-3.35
2023-11-28T01:12:54.613Z,-3.36
2023-11-28T01:15:22.333Z,-3.39
2023-11-28T01:17:50.330Z,-3.37
2023-11-28T01:20:17.457Z,-3.42
2023-11-28T01:22:44.909Z,-3.43
2023-11-28T01:25:12.634Z,-3.45
2023-11-28T01:27:39.866Z,-3.48
2023-11-28T01:30:07.924Z,-3.49
2023-11-28T01:32:35.297Z,-3.55
2023-11-28T01:35:03.546Z,-3.61
2023-11-28T01:37:31.699Z,-3.67
2023-11-28T01:39:59.123Z,-3.67
2023-11-28T01:42:26.316Z,-3.71
2023-11-28T01:44:53.552Z,-3.69
2023-11-28T01:47:21.742Z,-3.70
2023-11-28T01:49:49.027Z,-3.66
2023-11-28T01:52:16.527Z,-3.70
2023-11-28T01:54:44.389Z,-3.75
2023-11-28T01:57:12.051Z,-3.78
2023-11-28T01:59:39.987Z,-3.80
2023-11-28T02:02:07.922Z,-3.82
2023-11-28T02:04:35.474Z,-3.86
2023-11-28T02:07:03.291Z,-3.87
2023-11-28T02:09:31.067Z,-3.89
2023-11-28T02:11:58.971Z,-3.89
2023-11-28T02:14:26.242Z,-3.89
2023-11-28T02:16:54.841Z,-3.91
2023-11-28T02:19:22.477Z,-3.86
2023-11-28T02:22:10.435Z,-3.81
2023-11-28T02:24:42.717Z,-3.73
2023-11-28T02:27:09.816Z,-3.72
2023-11-28T02:29:37.161Z,-3.69
2023-11-28T02:32:04.504Z,-3.63
2023-11-28T02:34:31.628Z,-3.60
2023-11-28T02:36:58.768Z,-3.57
2023-11-28T02:39:26.188Z,-3.64
2023-11-28T02:41:53.656Z,-3.65
2023-11-28T02:44:20.844Z,-3.72
2023-11-28T02:46:48.409Z,-3.76
2023-11-28T02:49:15.670Z,-3.74
2023-11-28T02:51:42.779Z,-3.75
2023-11-28T02:54:09.917Z,-3.77
2023-11-28T02:56:37.161Z,-3.78
2023-11-28T02:59:04.552Z,-3.83
2023-11-28T03:01:31.725Z,-3.80
2023-11-28T03:03:58.953Z,-3.76
2023-11-28T03:06:26.064Z,-3.81
2023-11-28T03:08:54.030Z,-3.84
2023-11-28T03:11:21.269Z,-3.84
2023-11-28T03:13:48.517Z,-3.79
2023-11-28T03:16:15.913Z,-3.75
2023-11-28T03:18:43.098Z,-3.67
2023-11-28T03:21:10.619Z,-3.69
2023-11-28T03:23:37.895Z,-3.73
2023-11-28T03:26:05.475Z,-3.67
2023-11-28T03:28:32.617Z,-3.72
2023-11-28T03:30:59.681Z,-3.73
2023-11-28T03:33:26.774Z,-3.76
2023-11-28T03:35:53.906Z,-3.80
2023-11-28T03:38:20.956Z,-3.79
2023-11-28T03:40:49.113Z,-3.80
2023-11-28T03:43:16.314Z,-3.75
2023-11-28T03:45:43.885Z,-3.70
2023-11-28T03:48:11.235Z,-3.75
2023-11-28T03:50:38.513Z,-3.73
2023-11-28T03:53:05.982Z,-3.68
2023-11-28T03:55:34.931Z,-3.61
2023-11-28T03:58:02.144Z,-3.66
2023-11-28T04:00:29.375Z,-3.75
2023-11-28T04:02:57.688Z,-3.74
2023-11-28T04:05:25.197Z,-3.71
2023-11-28T04:07:52.344Z,-3.74
2023-11-28T04:10:19.787Z,-3.82
2023-11-28T04:12:46.940Z,-3.82
2023-11-28T04:15:14.078Z,-3.76
2023-11-28T04:17:41.451Z,-3.81
2023-11-28T04:20:09.298Z,-3.81
2023-11-28T04:22:36.494Z,-3.81
2023-11-28T04:25:06.733Z,-3.74
2023-11-28T04:27:34.112Z,-3.87
2023-11-28T04:30:01.648Z,-3.93
2023-11-28T04:32:32.507Z,-3.88
2023-11-28T04:34:59.843Z,-3.79
2023-11-28T04:37:27.093Z,-3.90
2023-11-28T04:39:56.529Z,-3.93
2023-11-28T04:42:23.562Z,-3.99
2023-11-28T04:44:50.929Z,-4.04
2023-11-28T04:47:18.167Z,-4.16
2023-11-28T04:49:45.749Z,-4.31
2023-11-28T04:52:12.894Z,-4.34
2023-11-28T04:54:39.933Z,-4.38
2023-11-28T04:57:07.193Z,-4.44
2023-11-28T04:59:34.471Z,-4.48
2023-11-28T05:02:01.999Z,-4.49
2023-11-28T05:04:29.459Z,-4.54
2023-11-28T05:06:57.320Z,-4.60
2023-11-28T05:09:27.382Z,-4.61
2023-11-28T05:11:55.049Z,-4.66
2023-11-28T05:14:25.601Z,-4.67
2023-11-28T05:16:54.495Z,-4.56
2023-11-28T05:19:23.809Z,-4.60
2023-11-28T05:21:54.342Z,-4.61
2023-11-28T05:24:22.119Z,-4.67
2023-11-28T05:26:49.384Z,-4.72
2023-11-28T05:29:16.553Z,-4.75
2023-11-28T05:31:43.855Z,-4.76
2023-11-28T05:34:11.191Z,-4.75
2023-11-28T05:36:38.517Z,-4.71
2023-11-28T05:39:06.187Z,-4.72
2023-11-28T05:41:33.518Z,-4.78
2023-11-28T05:44:00.656Z,-4.77
2023-11-28T05:46:28.371Z,-4.75
2023-11-28T05:48:55.828Z,-4.69
2023-11-28T05:51:23.124Z,-4.70
2023-11-28T05:53:50.301Z,-4.67
2023-11-28T05:56:18.963Z,-4.57
2023-11-28T05:58:46.417Z,-4.52
2023-11-28T06:01:16.912Z,-4.57
2023-11-28T06:03:44.293Z,-4.61
2023-11-28T06:06:11.633Z,-4.52
2023-11-28T06:08:39.688Z,-4.49
2023-11-28T06:11:10.097Z,-4.49
2023-11-28T06:13:37.899Z,-4.41
2023-11-28T06:16:06.453Z,-4.37
2023-11-28T06:18:35.526Z,-4.30
2023-11-28T06:21:02.719Z,-4.13
2023-11-28T06:23:29.918Z,-4.11
2023-11-28T06:25:57.415Z,-4.17
2023-11-28T06:28:24.573Z,-4.16
2023-11-28T06:30:52.078Z,-3.97
2023-11-28T06:33:19.462Z,-4.02
2023-11-28T06:35:47.962Z,-4.13
2023-11-28T06:38:15.185Z,-4.17
2023-11-28T06:40:42.482Z,-4.25
2023-11-28T06:43:10.211Z,-4.28
2023-11-28T06:45:37.469Z,-4.28
2023-11-28T06:48:05.076Z,-4.21
2023-11-28T06:50:32.461Z,-4.22
2023-11-28T06:52:59.677Z,-4.16
2023-11-28T06:55:26.909Z,-4.09
2023-11-28T06:57:54.177Z,-4.13
2023-11-28T07:00:21.346Z,-4.17
2023-11-28T07:02:48.667Z,-4.21
2023-11-28T07:05:16.062Z,-4.14
2023-11-28T07:07:43.335Z,-4.09
2023-11-28T07:10:10.748Z,-4.00
2023-11-28T07:12:37.950Z,-3.91
2023-11-28T07:15:05.847Z,-3.83
2023-11-28T07:17:34.080Z,-3.82
2023-11-28T07:20:01.565Z,-3.77
2023-11-28T07:22:32.100Z,-3.62
2023-11-28T07:25:01.692Z,-3.50
2023-11-28T07:27:32.860Z,-3.48
2023-11-28T07:30:00.074Z,-3.63
2023-11-28T07:32:27.526Z,-3.68
2023-11-28T07:34:54.891Z,-3.74
2023-11-28T07:37:22.605Z,-3.79
2023-11-28T07:39:50.454Z,-3.78
2023-11-28T07:42:17.802Z,-3.77
2023-11-28T07:44:46.814Z,-3.71
2023-11-28T07:47:16.933Z,-3.66
2023-11-28T07:49:44.698Z,-3.56
2023-11-28T07:52:13.825Z,-3.50
2023-11-28T07:54:41.177Z,-3.54
2023-11-28T07:57:08.324Z,-3.64
2023-11-28T07:59:35.925Z,-3.63
2023-11-28T08:02:03.471Z,-3.69
2023-11-28T08:04:31.139Z,-3.71
2023-11-28T08:06:58.335Z,-3.59
2023-11-28T08:09:25.501Z,-3.55
2023-11-28T08:11:52.673Z,-3.55
2023-11-28T08:14:21.494Z,-3.53
2023-11-28T08:16:50.165Z,-3.55
2023-11-28T08:19:17.788Z,-3.53
2023-11-28T08:21:45.178Z,-3.54
2023-11-28T08:24:12.419Z,-3.42
2023-11-28T08:26:39.731Z,-3.32
2023-11-28T08:29:06.909Z,-3.38
2023-11-28T08:31:34.237Z,-3.37
2023-11-28T08:34:01.413Z,-3.34
2023-11-28T08:36:30.772Z,-3.40
2023-11-28T08:38:57.998Z,-3.40
2023-11-28T08:41:25.329Z,-3.29
2023-11-28T08:43:52.742Z,-3.30
2023-11-28T08:46:22.321Z,-3.35
2023-11-28T08:48:51.864Z,-3.31
2023-11-28T08:51:19.219Z,-3.24
2023-11-28T08:53:46.614Z,-3.11
2023-11-28T08:56:14.566Z,-3.05
2023-11-28T08:58:42.101Z,-3.18
2023-11-28T09:01:09.503Z,-3.34
2023-11-28T09:03:37.188Z,-3.44
2023-11-28T09:06:04.658Z,-3.37
2023-11-28T09:08:31.997Z,-3.35
2023-11-28T09:10:59.516Z,-3.27
2023-11-28T09:13:27.224Z,-3.09
2023-11-28T09:15:55.700Z,-2.84
2023-11-28T09:18:23.362Z,-2.59
2023-11-28T09:20:50.682Z,-2.56
2023-11-28T09:23:18.016Z,-2.46
2023-11-28T09:25:50.465Z,-2.38
2023-11-28T09:28:24.395Z,-2.32
2023-11-28T09:30:51.615Z,-2.24
2023-11-28T09:33:18.952Z,-2.12
2023-11-28T09:35:46.460Z,-2.21
2023-11-28T09:38:14.182Z,-2.37
2023-11-28T09:40:41.541Z,-2.47
2023-11-28T09:43:09.177Z,-2.54
2023-11-28T09:45:39.456Z,-2.47
2023-11-28T09:48:11.417Z,-2.35
2023-11-28T09:50:40.374Z,-2.39
2023-11-28T09:53:08.072Z,-2.48
2023-11-28T09:55:35.869Z,-2.61
2023-11-28T09:58:05.102Z,-2.82
2023-11-28T10:00:35.716Z,-2.97
2023-11-28T10:03:04.768Z,-2.90
2023-11-28T10:05:32.254Z,-2.84
2023-11-28T10:08:00.057Z,-2.81
2023-11-28T10:10:27.359Z,-2.94
2023-11-28T10:12:55.624Z,-2.87
2023-11-28T10:15:23.111Z,-2.91
2023-11-28T10:17:50.987Z,-2.99
2023-11-28T10:20:23.030Z,-3.10
2023-11-28T10:22:54.567Z,-3.02
2023-11-28T10:25:25.694Z,-2.93
2023-11-28T10:27:59.473Z,-3.03
2023-11-28T10:30:29.374Z,-2.94
2023-11-28T10:32:58.933Z,-2.91
2023-11-28T10:35:39.301Z,-2.85
2023-11-28T10:38:07.047Z,-2.73
2023-11-28T10:40:35.036Z,-2.67
2023-11-28T10:43:02.294Z,-2.75
2023-11-28T10:45:29.773Z,-2.86
2023-11-28T10:47:57.333Z,-2.94
2023-11-28T10:50:24.753Z,-2.92
2023-11-28T10:52:53.390Z,-2.71
2023-11-28T10:55:22.713Z,-2.65
2023-11-28T10:58:01.607Z,-2.47
2023-11-28T11:00:30.080Z,-2.53
2023-11-28T11:02:59.305Z,-2.78
2023-11-28T11:05:27.455Z,-2.86
2023-11-28T11:07:55.589Z,-2.88
2023-11-28T11:10:23.514Z,-2.91
2023-11-28T11:13:04.838Z,-2.97
2023-11-28T11:16:03.403Z,-2.92
2023-11-28T11:18:43.415Z,-2.98
2023-11-28T11:21:28.665Z,-2.90
2023-11-28T11:23:56.400Z,-3.04
2023-11-28T11:26:46.300Z,-3.04
2023-11-28T11:29:25.630Z,-3.00
2023-11-28T11:31:54.310Z,-2.99
2023-11-28T11:34:34.793Z,-3.02
2023-11-28T11:37:11.527Z,-2.97
2023-11-28T11:39:40.305Z,-2.98
2023-11-28T11:42:13.363Z,-2.91
2023-11-28T11:44:41.871Z,-2.89
2023-11-28T11:47:21.255Z,-3.00
2023-11-28T11:49:51.922Z,-2.96
2023-11-28T11:52:21.118Z,-2.83
2023-11-28T11:54:48.478Z,-2.76
2023-11-28T11:57:15.809Z,-2.77
2023-11-28T11:59:43.249Z,-2.78
2023-11-28T12:02:10.930Z,-2.90
2023-11-28T12:04:45.968Z,-3.08
2023-11-28T12:07:16.222Z,-3.16
2023-11-28T12:09:43.939Z,-3.06
2023-11-28T12:12:14.854Z,-2.99
2023-11-28T12:14:42.267Z,-3.01
2023-11-28T12:17:09.859Z,-2.94
2023-11-28T12:19:37.047Z,-3.08
2023-11-28T12:22:10.692Z,-3.12
2023-11-28T12:24:38.025Z,-3.13
2023-11-28T12:27:05.607Z,-3.17
2023-11-28T12:29:33.419Z,-3.22
2023-11-28T12:32:00.744Z,-3.37
2023-11-28T12:34:30.241Z,-3.30
2023-11-28T12:36:59.012Z,-3.21
2023-11-28T12:39:27.516Z,-3.21
2023-11-28T12:41:55.986Z,-3.17
2023-11-28T12:44:31.408Z,-3.17
2023-11-28T12:47:00.768Z,-3.06
2023-11-28T12:49:28.506Z,-3.05
2023-11-28T12:51:59.506Z,-3.06
2023-11-28T12:54:27.186Z,-3.08
2023-11-28T12:56:54.879Z,-2.89
2023-11-28T12:59:24.504Z,-2.91
2023-11-28T13:01:57.070Z,-2.93
2023-11-28T13:04:25.713Z,-2.99
2023-11-28T13:07:05.555Z,-2.97
2023-11-28T13:09:41.388Z,-2.89
2023-11-28T13:12:09.627Z,-2.89
2023-11-28T13:14:38.016Z,-3.12
2023-11-28T13:17:07.993Z,-3.24
2023-11-28T13:19:37.692Z,-3.28
2023-11-28T13:22:05.695Z,-3.35
2023-11-28T13:24:33.182Z,-3.37
2023-11-28T13:27:00.355Z,-3.34
2023-11-28T13:29:27.706Z,-3.26
2023-11-28T13:31:56.636Z,-3.08
2023-11-28T13:34:23.881Z,-3.18
2023-11-28T13:36:51.080Z,-3.28
2023-11-28T13:39:18.228Z,-3.28
2023-11-28T13:41:45.511Z,-3.31
2023-11-28T13:44:13.281Z,-3.36
2023-11-28T13:46:42.334Z,-3.47
2023-11-28T13:49:09.774Z,-3.57
2023-11-28T13:51:37.306Z,-3.56
2023-11-28T13:54:06.326Z,-3.46
2023-11-28T13:56:34.921Z,-3.50
2023-11-28T13:59:02.857Z,-3.74
2023-11-28T14:01:30.974Z,-3.83
2023-11-28T14:04:00.067Z,-3.81
2023-11-28T14:06:27.635Z,-3.78
2023-11-28T14:08:54.914Z,-3.65
2023-11-28T14:11:22.159Z,-3.48
2023-11-28T14:13:49.528Z,-3.42
2023-11-28T14:16:16.722Z,-3.51
2023-11-28T14:18:44.020Z,-3.66
2023-11-28T14:21:11.259Z,-3.66
2023-11-28T14:23:38.478Z,-3.74
2023-11-28T14:26:06.100Z,-3.76
2023-11-28T14:28:33.480Z,-3.75
2023-11-28T14:31:00.838Z,-3.92
2023-11-28T14:33:30.180Z,-3.77
2023-11-28T14:35:58.340Z,-3.54
2023-11-28T14:38:25.755Z,-3.48
2023-11-28T14:40:53.358Z,-3.43
2023-11-28T14:43:20.636Z,-3.44
2023-11-28T14:45:47.776Z,-3.46
2023-11-28T14:48:15.176Z,-3.40
2023-11-28T14:50:43.492Z,-3.50
2023-11-28T14:53:12.985Z,-3.56
2023-11-28T14:55:41.986Z,-3.59
2023-11-28T14:58:10.765Z,-3.52
2023-11-28T15:00:38.006Z,-3.48
2023-11-28T15:03:06.208Z,-3.44
2023-11-28T15:05:34.824Z,-3.37
2023-11-28T15:08:02.277Z,-3.41
2023-11-28T15:10:30.790Z,-3.63
2023-11-28T15:12:58.756Z,-3.68
2023-11-28T15:15:26.174Z,-3.68
2023-11-28T15:17:53.545Z,-3.78
2023-11-28T15:20:21.197Z,-3.85
2023-11-28T15:22:48.639Z,-3.96
2023-11-28T15:25:15.712Z,-3.97
2023-11-28T15:27:42.959Z,-3.83
2023-11-28T15:30:12.444Z,-3.77
2023-11-28T15:32:40.445Z,-3.78
2023-11-28T15:35:12.572Z,-3.92
2023-11-28T15:37:41.533Z,-3.89
2023-11-28T15:40:10.684Z,-3.94
2023-11-28T15:42:38.238Z,-4.01
2023-11-28T15:45:06.054Z,-4.03
2023-11-28T15:47:34.448Z,-4.11
2023-11-28T15:50:01.988Z,-3.93
2023-11-28T15:52:32.967Z,-3.76
2023-11-28T15:55:00.673Z,-3.77
2023-11-28T15:57:32.530Z,-3.72
2023-11-28T15:59:59.930Z,-3.81
2023-11-28T16:02:28.760Z,-3.86
2023-11-28T16:04:55.959Z,-3.86
2023-11-28T16:07:24.290Z,-3.79
2023-11-28T16:09:51.778Z,-3.89
2023-11-28T16:12:19.232Z,-3.92
2023-11-28T16:14:47.971Z,-3.87
2023-11-28T16:17:16.420Z,-3.86
2023-11-28T16:19:44.776Z,-4.03
2023-11-28T16:22:12.116Z,-4.30
2023-11-28T16:24:40.283Z,-4.57
2023-11-28T16:27:07.417Z,-4.71
2023-11-28T16:29:36.125Z,-4.68
2023-11-28T16:32:03.573Z,-4.61
2023-11-28T16:34:30.773Z,-4.47
2023-11-28T16:36:57.837Z,-4.48
2023-11-28T16:39:24.941Z,-4.29
2023-11-28T16:41:52.078Z,-4.20
2023-11-28T16:44:19.405Z,-4.02
2023-11-28T16:46:46.673Z,-3.96
2023-11-28T16:49:13.847Z,-3.95
2023-11-28T16:51:41.144Z,-3.83
2023-11-28T16:54:08.475Z,-4.05
2023-11-28T16:56:35.890Z,-4.07
2023-11-28T16:59:04.212Z,-4.11
2023-11-28T17:01:34.062Z,-4.03
2023-11-28T17:04:01.417Z,-3.84
2023-11-28T17:06:30.330Z,-3.72
2023-11-28T17:08:57.872Z,-3.57
2023-11-28T17:11:25.247Z,-3.43
2023-11-28T17:13:56.432Z,-3.44
2023-11-28T17:16:24.457Z,-3.55
2023-11-28T17:18:51.890Z,-3.72
2023-11-28T17:21:19.982Z,-3.76
2023-11-28T17:23:47.404Z,-3.86
2023-11-28T17:26:16.666Z,-3.98
2023-11-28T17:28:44.252Z,-4.18
2023-11-28T17:31:11.616Z,-4.11
2023-11-28T17:33:38.823Z,-3.92
2023-11-28T17:36:06.264Z,-3.82
2023-11-28T17:38:33.536Z,-3.89
2023-11-28T17:41:00.907Z,-4.05
2023-11-28T17:43:28.155Z,-4.05
2023-11-28T17:45:55.533Z,-4.15
2023-11-28T17:48:22.876Z,-4.17
2023-11-28T17:50:51.932Z,-4.03
2023-11-28T17:53:19.473Z,-4.08
2023-11-28T17:55:47.858Z,-3.89
2023-11-28T17:58:15.127Z,-3.75
2023-11-28T18:00:42.274Z,-3.83
2023-11-28T18:03:09.635Z,-3.92
2023-11-28T18:05:37.591Z,-4.03
2023-11-28T18:08:05.711Z,-4.06
2023-11-28T18:10:33.119Z,-3.87
2023-11-28T18:13:02.457Z,-3.76
2023-11-28T18:15:33.017Z,-3.72
2023-11-28T18:18:03.415Z,-3.79
2023-11-28T18:20:36.319Z,-3.75
2023-11-28T18:23:03.863Z,-3.68
2023-11-28T18:25:31.140Z,-3.68
2023-11-28T18:27:58.944Z,-3.67
2023-11-28T18:30:26.679Z,-3.65
2023-11-28T18:32:54.055Z,-3.62
2023-11-28T18:35:22.712Z,-3.62
2023-11-28T18:37:49.917Z,-3.52
2023-11-28T18:40:17.277Z,-3.56
2023-11-28T18:42:45.718Z,-3.51
2023-11-28T18:45:12.889Z,-3.57
2023-11-28T18:47:40.705Z,-3.72
2023-11-28T18:50:08.729Z,-3.65
2023-11-28T18:52:35.907Z,-3.48
2023-11-28T18:55:04.423Z,-3.29
2023-11-28T18:57:31.953Z,-3.26
2023-11-28T18:59:59.509Z,-3.17
2023-11-28T19:02:28.988Z,-3.11
2023-11-28T19:04:56.449Z,-3.29
2023-11-28T19:07:23.586Z,-3.37
2023-11-28T19:09:50.933Z,-3.36
2023-11-28T19:12:18.039Z,-3.23
2023-11-28T19:14:45.773Z,-3.09
2023-11-28T19:17:13.076Z,-2.99
2023-11-28T19:19:41.351Z,-2.92
2023-11-28T19:22:08.495Z,-2.82
2023-11-28T19:24:36.552Z,-2.91
2023-11-28T19:27:04.842Z,-3.01
2023-11-28T19:29:32.226Z,-3.23
2023-11-28T19:31:59.631Z,-3.41
2023-11-28T19:34:28.915Z,-3.51
2023-11-28T19:36:56.622Z,-3.56
2023-11-28T19:51:13.485Z,-3.14
2023-11-28T19:53:40.784Z,-3.23
2023-11-28T19:56:08.096Z,-3.23
2023-11-28T19:58:35.897Z,-3.35
2023-11-28T20:01:05.178Z,-3.29
2023-11-28T20:03:34.550Z,-3.12
2023-11-28T20:06:02.235Z,-2.96
2023-11-28T20:08:29.514Z,-2.92
2023-11-28T20:10:56.800Z,-2.96
2023-11-28T20:13:23.924Z,-2.93
2023-11-28T20:15:52.057Z,-2.90
2023-11-28T20:18:19.239Z,-2.79
2023-11-28T20:20:46.601Z,-2.68
2023-11-28T20:23:13.907Z,-2.65
2023-11-28T20:25:40.971Z,-2.64
2023-11-28T20:28:08.206Z,-2.62
2023-11-28T20:30:35.308Z,-2.65
2023-11-28T20:33:02.544Z,-2.65
2023-11-28T20:35:29.788Z,-2.68
2023-11-28T20:37:57.424Z,-2.72
2023-11-28T20:40:26.959Z,-2.72
2023-11-28T20:42:54.598Z,-2.72
2023-11-28T20:45:22.065Z,-2.82
2023-11-28T20:47:49.467Z,-2.98
2023-11-28T20:50:16.809Z,-3.11
2023-11-28T20:52:44.145Z,-3.24
2023-11-28T20:55:11.374Z,-3.34
2023-11-28T20:57:38.437Z,-3.41
2023-11-28T21:00:07.058Z,-3.49
2023-11-28T21:02:34.424Z,-3.61
2023-11-28T21:05:02.111Z,-3.73
2023-11-28T21:07:30.896Z,-3.75
2023-11-28T21:09:58.066Z,-3.76
2023-11-28T21:12:25.400Z,-3.83
2023-11-28T21:14:52.788Z,-3.93
2023-11-28T21:17:20.034Z,-4.08
2023-11-28T21:19:50.533Z,-4.17
2023-11-28T21:22:17.827Z,-4.22
2023-11-28T21:24:45.406Z,-4.19
2023-11-28T21:27:12.598Z,-4.22
2023-11-28T21:29:41.527Z,-4.26
2023-11-28T21:32:08.780Z,-4.26
2023-11-28T21:34:36.189Z,-4.27
2023-11-28T21:37:03.449Z,-4.17
2023-11-28T21:39:32.058Z,-4.11
2023-11-28T21:41:59.257Z,-4.05
2023-11-28T21:44:27.273Z,-4.04
2023-11-28T21:46:58.631Z,-4.03
2023-11-28T21:49:25.866Z,-3.96
2023-11-28T21:51:52.964Z,-3.93
2023-11-28T21:54:20.334Z,-3.97
2023-11-28T21:56:47.499Z,-3.94
2023-11-28T21:59:15.023Z,-3.81
2023-11-28T22:01:42.315Z,-3.83
2023-11-28T22:04:09.497Z,-3.94
2023-11-28T22:06:36.786Z,-4.05
2023-11-28T22:09:05.068Z,-4.06
2023-11-28T22:11:36.073Z,-3.98
2023-11-28T22:14:03.964Z,-4.01
2023-11-28T22:16:31.306Z,-3.88
2023-11-28T22:18:58.452Z,-3.77
2023-11-28T22:21:27.204Z,-3.75
2023-11-28T22:23:54.912Z,-3.70
2023-11-28T22:26:22.212Z,-3.75
2023-11-28T22:28:49.361Z,-3.66
2023-11-28T22:31:17.203Z,-3.62
2023-11-28T22:33:44.413Z,-3.79
2023-11-28T22:36:11.989Z,-3.93
2023-11-28T22:38:39.312Z,-4.00
2023-11-28T22:41:07.629Z,-4.16
2023-11-28T22:43:34.799Z,-4.17
2023-11-28T22:46:01.981Z,-4.10
2023-11-28T22:48:29.562Z,-4.09
2023-11-28T22:50:56.870Z,-4.12
2023-11-28T22:53:24.514Z,-4.16
2023-11-28T22:55:52.158Z,-4.23
2023-11-28T22:58:19.224Z,-4.22
2023-11-28T23:00:46.845Z,-4.33
2023-11-28T23:03:14.543Z,-4.34
2023-11-28T23:05:42.271Z,-4.31
2023-11-28T23:08:09.849Z,-4.44
2023-11-28T23:10:37.019Z,-4.54
2023-11-28T23:13:05.203Z,-4.65
2023-11-28T23:15:32.553Z,-4.65
2023-11-28T23:17:59.751Z,-4.66
2023-11-28T23:20:27.183Z,-4.58
2023-11-28T23:22:58.467Z,-4.49
2023-11-28T23:25:26.431Z,-4.40
2023-11-28T23:27:56.290Z,-4.51
2023-11-28T23:30:25.634Z,-4.55
2023-11-28T23:32:53.075Z,-4.48
2023-11-28T23:35:20.550Z,-4.42
2023-11-28T23:37:48.069Z,-4.44
2023-11-28T23:40:15.578Z,-4.51
2023-11-28T23:42:47.187Z,-4.54
2023-11-28T23:45:19.761Z,-4.49
2023-11-28T23:47:49.960Z,-4.51
2023-11-28T23:50:17.695Z,-4.59
2023-11-28T23:52:44.963Z,-4.67
2023-11-28T23:55:12.271Z,-4.66
2023-11-28T23:57:39.502Z,-4.63
